createdAt,value
2018-02-14T00:02:10.836Z,91.98
2018-02-14T00:04:38.382Z,91.31
2018-02-14T00:07:06.051Z,91.20
2018-02-14T00:09:33.614Z,91.98
2018-02-14T00:12:01.190Z,91.77
2018-02-14T00:14:28.702Z,91.67
2018-02-14T00:16:56.255Z,91.66
2018-02-14T00:19:23.782Z,91.57
2018-02-14T00:21:51.317Z,90.87
2018-02-14T00:24:18.850Z,90.98
2018-02-14T00:26:46.405Z,91.42
2018-02-14T00:29:13.975Z,91.25
2018-02-14T00:31:41.502Z,90.62
2018-02-14T00:34:09.025Z,92.17
2018-02-14T00:36:36.581Z,91.88
2018-02-14T00:39:04.136Z,91.46
2018-02-14T00:41:31.648Z,91.35
2018-02-14T00:43:59.280Z,91.30
2018-02-14T00:46:26.826Z,91.63
2018-02-14T00:48:54.357Z,91.39
2018-02-14T00:51:21.887Z,92.44
2018-02-14T00:53:49.396Z,92.66
2018-02-14T00:56:16.914Z,92.28
2018-02-14T00:58:44.435Z,91.61
2018-02-14T01:01:11.955Z,92.41
2018-02-14T01:03:39.630Z,92.68
2018-02-14T01:06:07.320Z,92.26
2018-02-14T01:08:34.856Z,91.27
2018-02-14T01:11:02.390Z,90.95
2018-02-14T01:13:29.901Z,91.24
2018-02-14T01:15:57.584Z,91.56
2018-02-14T01:18:25.145Z,91.95
2018-02-14T01:20:53.577Z,91.89
2018-02-14T01:23:21.100Z,91.20
2018-02-14T01:25:48.644Z,91.87
2018-02-14T01:28:16.280Z,92.10
2018-02-14T01:30:43.818Z,91.37
2018-02-14T01:33:11.335Z,91.07
2018-02-14T01:35:38.861Z,90.98
2018-02-14T01:38:06.395Z,90.47
2018-02-14T01:40:33.907Z,90.57
2018-02-14T01:43:01.424Z,91.01
2018-02-14T01:45:29.090Z,91.28
2018-02-14T01:47:56.587Z,90.94
2018-02-14T01:50:35.910Z,91.25
2018-02-14T01:53:03.479Z,91.42
2018-02-14T01:55:31.007Z,91.45
2018-02-14T01:57:58.709Z,91.78
2018-02-14T02:00:26.252Z,91.44
2018-02-14T02:02:53.966Z,91.91
2018-02-14T02:05:21.514Z,92.11
2018-02-14T02:07:49.068Z,92.49
2018-02-14T02:10:16.731Z,92.05
2018-02-14T02:12:44.255Z,92.08
2018-02-14T02:15:11.802Z,92.73
2018-02-14T02:17:39.331Z,92.85
2018-02-14T02:20:06.876Z,92.16
2018-02-14T02:22:34.603Z,91.78
2018-02-14T02:25:02.126Z,92.07
2018-02-14T02:27:29.676Z,91.53
2018-02-14T02:29:57.226Z,91.19
2018-02-14T02:32:24.934Z,90.91
2018-02-14T02:34:52.472Z,91.18
2018-02-14T02:37:20.030Z,91.12
2018-02-14T02:39:59.557Z,92.17
2018-02-14T02:42:27.091Z,92.29
2018-02-14T02:44:54.651Z,92.20
2018-02-14T02:47:22.174Z,91.90
2018-02-14T02:49:49.769Z,91.65
2018-02-14T02:52:17.316Z,91.61
2018-02-14T02:54:44.849Z,91.65
2018-02-14T02:57:12.397Z,91.05
2018-02-14T02:59:39.926Z,91.16
2018-02-14T03:02:07.664Z,90.66
2018-02-14T03:04:35.312Z,89.65
2018-02-14T03:07:02.952Z,90.26
2018-02-14T03:09:30.492Z,90.62
2018-02-14T03:11:58.020Z,90.98
2018-02-14T03:14:25.549Z,91.18
2018-02-14T03:16:53.089Z,91.12
2018-02-14T03:19:20.634Z,91.23
2018-02-14T03:21:48.162Z,91.03
2018-02-14T03:24:15.691Z,89.91
2018-02-14T03:26:43.257Z,89.79
2018-02-14T03:29:10.795Z,91.03
2018-02-14T03:31:38.336Z,91.50
2018-02-14T03:34:05.851Z,91.31
2018-02-14T03:36:33.417Z,91.01
2018-02-14T03:39:00.984Z,90.93
2018-02-14T03:41:28.512Z,90.65
2018-02-14T03:43:56.030Z,90.46
2018-02-14T03:46:23.559Z,90.22
2018-02-14T03:48:51.110Z,90.76
2018-02-14T03:51:18.634Z,90.99
2018-02-14T03:53:46.200Z,91.28
2018-02-14T03:56:13.740Z,91.67
2018-02-14T03:58:41.301Z,91.62
2018-02-14T04:01:08.886Z,90.49
2018-02-14T04:03:36.405Z,91.28
2018-02-14T04:06:03.939Z,91.12
2018-02-14T04:08:31.465Z,91.93
2018-02-14T04:10:58.994Z,91.79
2018-02-14T04:13:26.544Z,91.72
2018-02-14T04:15:54.074Z,91.31
2018-02-14T04:18:21.586Z,90.90
2018-02-14T04:20:49.111Z,91.02
2018-02-14T04:23:16.652Z,91.16
2018-02-14T04:25:44.170Z,90.57
2018-02-14T04:28:21.665Z,90.36
2018-02-14T04:30:49.240Z,90.74
2018-02-14T04:33:16.761Z,90.74
2018-02-14T04:35:44.282Z,91.30
2018-02-14T04:38:11.830Z,91.49
2018-02-14T04:40:39.355Z,91.62
2018-02-14T04:43:06.881Z,90.35
2018-02-14T04:45:34.400Z,89.26
2018-02-14T04:48:01.916Z,89.63
2018-02-14T04:50:29.442Z,90.02
2018-02-14T04:52:56.951Z,90.20
2018-02-14T04:55:24.495Z,89.54
2018-02-14T04:57:52.036Z,90.01
2018-02-14T05:00:19.551Z,90.34
2018-02-14T05:02:47.075Z,90.93
2018-02-14T05:05:14.606Z,90.89
2018-02-14T05:07:42.115Z,90.58
2018-02-14T05:10:09.626Z,90.96
2018-02-14T05:12:37.166Z,90.72
2018-02-14T05:15:04.706Z,90.89
2018-02-14T05:17:32.223Z,91.27
2018-02-14T05:19:59.750Z,91.33
2018-02-14T05:22:27.287Z,91.05
2018-02-14T05:24:54.937Z,90.75
2018-02-14T05:27:22.510Z,91.17
2018-02-14T05:29:50.105Z,91.50
2018-02-14T05:32:17.750Z,91.96
2018-02-14T05:34:45.407Z,91.71
2018-02-14T05:37:13.063Z,91.36
2018-02-14T05:39:40.621Z,90.97
2018-02-14T05:42:08.270Z,89.66
2018-02-14T05:44:35.818Z,89.43
2018-02-14T05:47:03.357Z,89.55
2018-02-14T05:49:30.900Z,89.45
2018-02-14T05:51:58.432Z,90.06
2018-02-14T05:54:26.070Z,91.30
2018-02-14T05:56:53.627Z,91.56
2018-02-14T05:59:21.172Z,91.03
2018-02-14T06:01:48.680Z,89.46
2018-02-14T06:04:16.206Z,89.95
2018-02-14T06:06:43.817Z,90.33
2018-02-14T06:09:11.341Z,90.29
2018-02-14T06:11:38.861Z,89.75
2018-02-14T06:14:06.413Z,90.18
2018-02-14T06:16:33.952Z,90.68
2018-02-14T06:19:01.502Z,90.87
2018-02-14T06:21:29.044Z,91.15
2018-02-14T06:23:56.621Z,91.55
2018-02-14T06:26:24.162Z,91.19
2018-02-14T06:28:51.710Z,90.76
2018-02-14T06:31:19.255Z,90.11
2018-02-14T06:33:46.826Z,90.69
2018-02-14T06:36:14.622Z,90.32
2018-02-14T06:38:42.309Z,90.25
2018-02-14T06:41:09.861Z,90.94
2018-02-14T06:43:37.497Z,90.90
2018-02-14T06:46:05.214Z,91.14
2018-02-14T06:48:32.896Z,91.18
2018-02-14T06:51:00.712Z,91.01
2018-02-14T06:53:28.246Z,90.26
2018-02-14T06:55:55.793Z,89.94
2018-02-14T06:58:23.322Z,90.29
2018-02-14T07:00:50.865Z,89.01
2018-02-14T07:03:18.401Z,89.32
2018-02-14T07:05:45.946Z,89.52
2018-02-14T07:08:13.565Z,89.75
2018-02-14T07:10:41.089Z,90.11
2018-02-14T07:13:08.685Z,89.95
2018-02-14T07:15:36.247Z,89.69
2018-02-14T07:18:03.805Z,89.08
2018-02-14T07:20:31.347Z,88.45
2018-02-14T07:22:59.022Z,89.00
2018-02-14T07:25:26.572Z,89.17
2018-02-14T07:27:54.140Z,88.96
2018-02-14T07:30:21.665Z,88.37
2018-02-14T07:32:49.180Z,87.69
2018-02-14T07:35:16.711Z,87.38
2018-02-14T07:37:44.252Z,87.55
2018-02-14T07:40:11.791Z,87.69
2018-02-14T07:42:39.350Z,87.86
2018-02-14T07:45:06.905Z,87.93
2018-02-14T07:47:34.461Z,87.98
2018-02-14T07:50:01.997Z,88.61
2018-02-14T07:52:29.610Z,88.22
2018-02-14T07:54:57.176Z,87.19
2018-02-14T07:57:24.745Z,86.62
2018-02-14T07:59:52.310Z,85.95
2018-02-14T08:02:19.855Z,85.58
2018-02-14T08:04:47.417Z,84.83
2018-02-14T08:07:14.992Z,84.19
2018-02-14T08:09:42.551Z,84.18
2018-02-14T08:12:10.196Z,83.30
2018-02-14T08:14:37.810Z,82.45
2018-02-14T08:17:05.390Z,82.17
2018-02-14T08:19:33.056Z,81.38
2018-02-14T08:22:00.760Z,79.13
2018-02-14T08:24:28.560Z,78.28
2018-02-14T08:26:56.126Z,77.00
2018-02-14T08:29:23.685Z,75.06
2018-02-14T08:31:51.246Z,74.15
2018-02-14T08:34:18.919Z,73.34
2018-02-14T08:36:46.455Z,70.69
2018-02-14T08:39:14.007Z,69.33
2018-02-14T08:41:41.780Z,70.33
2018-02-14T08:44:09.313Z,67.12
2018-02-14T08:46:36.876Z,64.61
2018-02-14T08:49:04.412Z,67.79
2018-02-14T08:51:31.984Z,64.99
2018-02-14T08:53:59.521Z,62.32
2018-02-14T08:56:27.075Z,62.44
2018-02-14T08:58:54.683Z,61.53
2018-02-14T09:01:22.375Z,58.86
2018-02-14T09:03:49.906Z,56.93
2018-02-14T09:06:17.490Z,55.80
2018-02-14T09:08:45.081Z,52.50
2018-02-14T09:11:12.602Z,56.27
2018-02-14T09:13:40.250Z,53.86
2018-02-14T09:16:07.812Z,56.24
2018-02-14T09:18:35.380Z,53.27
2018-02-14T09:21:02.957Z,49.62
2018-02-14T09:23:30.576Z,48.65
2018-02-14T09:25:58.190Z,44.35
2018-02-14T09:28:25.731Z,42.52
2018-02-14T09:30:54.104Z,42.37
2018-02-14T09:33:21.687Z,45.89
2018-02-14T09:35:49.254Z,47.18
2018-02-14T09:38:16.960Z,45.66
2018-02-14T09:40:44.475Z,50.83
2018-02-14T09:43:12.027Z,54.09
2018-02-14T09:45:39.586Z,46.75
2018-02-14T09:48:07.123Z,45.88
2018-02-14T09:50:34.666Z,41.35
2018-02-14T09:53:02.187Z,42.76
2018-02-14T09:55:29.793Z,43.70
2018-02-14T09:57:57.416Z,45.18
2018-02-14T10:00:24.967Z,45.75
2018-02-14T10:02:52.533Z,42.33
2018-02-14T10:05:20.102Z,40.92
2018-02-14T10:07:47.635Z,37.04
2018-02-14T10:10:15.207Z,35.98
2018-02-14T10:12:42.740Z,34.96
2018-02-14T10:15:10.318Z,33.88
2018-02-14T10:17:37.902Z,31.82
2018-02-14T10:20:05.419Z,32.32
2018-02-14T10:22:32.971Z,37.48
2018-02-14T10:25:00.533Z,38.58
2018-02-14T10:27:28.078Z,44.95
2018-02-14T10:29:55.621Z,47.59
2018-02-14T10:32:23.207Z,42.94
2018-02-14T10:34:50.800Z,35.17
2018-02-14T10:37:18.365Z,30.74
2018-02-14T10:39:45.930Z,27.25
2018-02-14T10:42:13.497Z,26.01
2018-02-14T10:44:41.145Z,26.02
2018-02-14T10:47:08.700Z,27.97
2018-02-14T10:49:36.282Z,25.18
2018-02-14T10:52:03.825Z,22.60
2018-02-14T10:54:31.366Z,21.54
2018-02-14T10:56:58.911Z,21.45
2018-02-14T10:59:26.466Z,22.56
2018-02-14T11:01:59.645Z,20.46
2018-02-14T11:04:27.201Z,25.66
2018-02-14T11:06:54.711Z,27.91
2018-02-14T11:09:22.238Z,25.02
2018-02-14T11:11:49.807Z,23.80
2018-02-14T11:14:17.339Z,25.27
2018-02-14T11:16:44.946Z,27.63
2018-02-14T11:19:12.501Z,29.68
2018-02-14T11:21:40.040Z,33.04
2018-02-14T11:24:07.616Z,29.11
2018-02-14T11:26:35.296Z,26.83
2018-02-14T11:29:02.898Z,23.74
2018-02-14T11:31:30.446Z,24.64
2018-02-14T11:33:58.000Z,21.73
2018-02-14T11:36:25.638Z,25.07
2018-02-14T11:38:53.182Z,22.34
2018-02-14T11:41:20.761Z,24.61
2018-02-14T11:43:48.302Z,27.18
2018-02-14T11:46:15.873Z,26.02
2018-02-14T11:48:43.432Z,26.49
2018-02-14T11:51:11.078Z,22.77
2018-02-14T11:53:38.607Z,21.13
2018-02-14T11:56:06.268Z,18.06
2018-02-14T11:58:33.864Z,17.23
2018-02-14T12:01:03.220Z,15.77
2018-02-14T12:03:30.781Z,22.87
2018-02-14T12:05:58.330Z,19.21
2018-02-14T12:08:25.907Z,25.01
2018-02-14T12:10:53.485Z,22.40
2018-02-14T12:13:21.003Z,25.31
2018-02-14T12:15:48.556Z,24.53
2018-02-14T12:18:16.096Z,22.03
2018-02-14T12:20:43.812Z,22.72
2018-02-14T12:23:11.667Z,19.88
2018-02-14T12:25:39.219Z,18.92
2018-02-14T12:28:06.772Z,22.45
2018-02-14T12:30:34.325Z,27.50
2018-02-14T12:33:01.847Z,27.09
2018-02-14T12:35:33.251Z,25.19
2018-02-14T12:38:01.851Z,24.46
2018-02-14T12:40:29.452Z,27.01
2018-02-14T12:42:57.001Z,29.02
2018-02-14T12:45:24.567Z,29.64
2018-02-14T12:47:52.141Z,31.82
2018-02-14T12:50:19.782Z,33.15
2018-02-14T12:52:47.320Z,31.02
2018-02-14T12:55:14.875Z,26.48
2018-02-14T12:57:42.517Z,26.62
2018-02-14T13:00:10.061Z,25.70
2018-02-14T13:02:37.581Z,24.03
2018-02-14T13:05:05.235Z,21.41
2018-02-14T13:07:32.781Z,20.71
2018-02-14T13:10:00.416Z,21.21
2018-02-14T13:12:27.947Z,20.00
2018-02-14T13:14:59.757Z,20.82
2018-02-14T13:17:27.319Z,18.90
2018-02-14T13:19:54.853Z,23.29
2018-02-14T13:22:22.401Z,19.45
2018-02-14T13:24:49.965Z,20.34
2018-02-14T13:27:17.506Z,21.02
2018-02-14T13:29:45.067Z,20.36
2018-02-14T13:32:12.607Z,21.99
2018-02-14T13:34:40.152Z,23.66
2018-02-14T13:37:07.756Z,26.02
2018-02-14T13:39:35.290Z,25.84
2018-02-14T13:42:02.927Z,29.70
2018-02-14T13:44:30.472Z,29.98
2018-02-14T13:46:57.996Z,25.80
2018-02-14T13:49:26.417Z,24.77
2018-02-14T13:51:53.956Z,23.98
2018-02-14T13:54:21.547Z,24.30
2018-02-14T13:56:49.103Z,23.89
2018-02-14T13:59:16.658Z,26.76
2018-02-14T14:01:44.320Z,27.44
2018-02-14T14:04:12.037Z,26.56
2018-02-14T14:06:39.586Z,31.22
2018-02-14T14:09:07.166Z,30.69
2018-02-14T14:11:34.703Z,31.47
2018-02-14T14:14:02.264Z,33.21
2018-02-14T14:16:29.797Z,34.92
2018-02-14T14:18:57.321Z,34.65
2018-02-14T14:21:24.931Z,33.95
2018-02-14T14:23:52.483Z,33.62
2018-02-14T14:26:20.032Z,28.73
2018-02-14T14:28:47.576Z,25.36
2018-02-14T14:31:15.098Z,27.48
2018-02-14T14:33:42.633Z,25.41
2018-02-14T14:36:10.183Z,25.04
2018-02-14T14:38:37.722Z,25.44
2018-02-14T14:41:05.255Z,23.30
2018-02-14T14:43:33.060Z,26.68
2018-02-14T14:46:03.363Z,28.68
2018-02-14T14:51:02.858Z,29.65
2018-02-14T14:53:30.433Z,31.09
2018-02-14T14:55:57.996Z,33.22
2018-02-14T14:58:25.535Z,35.91
2018-02-14T15:00:53.906Z,32.61
2018-02-14T15:03:21.438Z,31.91
2018-02-14T15:05:48.972Z,35.25
2018-02-14T15:08:16.507Z,33.87
2018-02-14T15:10:44.042Z,36.17
2018-02-14T15:13:11.590Z,37.22
2018-02-14T15:15:39.107Z,37.11
2018-02-14T15:18:06.751Z,38.14
2018-02-14T15:20:34.304Z,38.05
2018-02-14T15:23:01.887Z,38.90
2018-02-14T15:25:29.421Z,38.27
2018-02-14T15:27:56.997Z,37.75
2018-02-14T15:30:24.548Z,37.30
2018-02-14T15:32:52.083Z,39.50
2018-02-14T15:35:19.639Z,38.94
2018-02-14T15:37:47.190Z,37.73
2018-02-14T15:40:14.766Z,39.48
2018-02-14T15:42:42.291Z,42.58
2018-02-14T15:45:09.856Z,40.32
2018-02-14T15:47:37.410Z,43.25
2018-02-14T15:50:04.937Z,42.66
2018-02-14T15:52:32.465Z,42.93
2018-02-14T15:55:00.040Z,44.42
2018-02-14T15:57:27.642Z,48.20
2018-02-14T15:59:55.171Z,43.75
2018-02-14T16:02:22.692Z,44.08
2018-02-14T16:04:50.256Z,47.10
2018-02-14T16:07:17.785Z,48.21
2018-02-14T16:09:45.511Z,50.75
2018-02-14T16:12:13.119Z,54.12
2018-02-14T16:14:40.656Z,51.11
2018-02-14T16:17:08.235Z,46.39
2018-02-14T16:19:35.757Z,48.03
2018-02-14T16:22:03.297Z,45.97
2018-02-14T16:24:30.815Z,48.40
2018-02-14T16:26:58.373Z,47.09
2018-02-14T16:29:25.946Z,47.28
2018-02-14T16:31:53.476Z,49.49
2018-02-14T16:34:20.986Z,47.94
2018-02-14T16:36:48.515Z,48.34
2018-02-14T16:39:16.047Z,49.36
2018-02-14T16:41:43.836Z,51.54
2018-02-14T16:44:11.871Z,52.54
2018-02-14T16:46:39.416Z,51.64
2018-02-14T16:49:07.355Z,52.22
2018-02-14T16:51:35.131Z,56.57
2018-02-14T16:54:03.008Z,58.89
2018-02-14T16:56:30.945Z,58.29
2018-02-14T16:58:59.343Z,58.19
2018-02-14T17:01:26.948Z,59.83
2018-02-14T17:03:54.505Z,60.19
2018-02-14T17:06:22.452Z,62.77
2018-02-14T17:08:51.119Z,63.67
2018-02-14T17:11:18.883Z,64.60
2018-02-14T17:13:46.848Z,62.56
2018-02-14T17:16:14.847Z,63.26
2018-02-14T17:18:42.815Z,65.13
2018-02-14T17:21:10.581Z,65.60
2018-02-14T17:23:38.428Z,66.35
2018-02-14T17:26:06.000Z,65.91
2018-02-14T17:28:33.536Z,66.83
2018-02-14T17:31:01.128Z,69.09
2018-02-14T17:33:28.656Z,70.45
2018-02-14T17:35:56.327Z,69.61
2018-02-14T17:38:24.132Z,69.95
2018-02-14T17:40:51.982Z,70.39
2018-02-14T17:43:19.542Z,70.07
2018-02-14T17:45:47.099Z,70.12
2018-02-14T17:48:14.626Z,68.49
2018-02-14T17:50:42.187Z,67.78
2018-02-14T17:53:09.728Z,69.01
2018-02-14T17:55:37.280Z,69.57
2018-02-14T17:58:04.832Z,71.52
2018-02-14T18:00:32.351Z,71.05
2018-02-14T18:02:59.892Z,70.57
2018-02-14T18:05:27.423Z,70.44
2018-02-14T18:07:54.974Z,71.67
2018-02-14T18:10:22.485Z,73.15
2018-02-14T18:12:50.117Z,72.94
2018-02-14T18:15:17.660Z,72.72
2018-02-14T18:17:45.222Z,73.65
2018-02-14T18:20:12.912Z,72.48
2018-02-14T18:22:40.440Z,72.71
2018-02-14T18:25:07.954Z,72.32
2018-02-14T18:27:35.494Z,73.32
2018-02-14T18:30:03.095Z,75.76
2018-02-14T18:32:30.691Z,75.78
2018-02-14T18:34:58.262Z,77.81
2018-02-14T18:37:25.921Z,78.75
2018-02-14T18:39:53.492Z,78.56
2018-02-14T18:42:21.063Z,78.33
2018-02-14T18:44:48.631Z,78.33
2018-02-14T18:47:16.178Z,78.22
2018-02-14T18:49:43.717Z,78.98
2018-02-14T18:52:11.248Z,79.39
2018-02-14T18:54:38.803Z,79.20
2018-02-14T18:57:06.493Z,80.92
2018-02-14T18:59:34.044Z,81.05
2018-02-14T19:02:01.598Z,81.10
2018-02-14T19:04:29.243Z,81.56
2018-02-14T19:06:56.792Z,81.73
2018-02-14T19:09:24.348Z,80.46
2018-02-14T19:11:51.918Z,80.76
2018-02-14T19:14:19.476Z,80.33
2018-02-14T19:16:47.371Z,79.90
2018-02-14T19:19:14.931Z,81.43
2018-02-14T19:21:42.585Z,81.63
2018-02-14T19:24:10.158Z,82.67
2018-02-14T19:26:37.793Z,82.66
2018-02-14T19:29:05.320Z,82.61
2018-02-14T19:31:33.060Z,82.92
2018-02-14T19:34:00.628Z,82.52
2018-02-14T19:36:28.234Z,82.46
2018-02-14T19:38:56.159Z,81.23
2018-02-14T19:41:23.938Z,81.54
2018-02-14T19:43:51.540Z,82.71
2018-02-14T19:46:19.097Z,82.18
2018-02-14T19:48:46.775Z,82.32
2018-02-14T19:51:14.367Z,83.96
2018-02-14T19:53:41.936Z,84.69
2018-02-14T19:56:09.505Z,85.20
2018-02-14T19:58:37.075Z,84.75
2018-02-14T20:01:04.623Z,84.72
2018-02-14T20:03:32.441Z,84.34
2018-02-14T20:06:00.103Z,83.74
2018-02-14T20:08:27.692Z,84.82
2018-02-14T20:10:55.236Z,85.09
2018-02-14T20:13:22.834Z,86.18
2018-02-14T20:15:50.386Z,87.21
2018-02-14T20:18:17.953Z,86.78
2018-02-14T20:20:45.567Z,87.93
2018-02-14T20:23:13.173Z,87.02
2018-02-14T20:25:40.849Z,86.26
2018-02-14T20:28:08.432Z,86.76
2018-02-14T20:30:35.963Z,87.40
2018-02-14T20:33:03.559Z,87.75
2018-02-14T20:35:31.201Z,88.28
2018-02-14T20:37:58.765Z,88.24
2018-02-14T20:40:26.295Z,87.71
2018-02-14T20:42:53.822Z,88.31
2018-02-14T20:45:21.422Z,88.24
2018-02-14T20:47:49.083Z,88.63
2018-02-14T20:50:16.688Z,87.94
2018-02-14T20:52:44.245Z,88.56
2018-02-14T20:55:11.808Z,88.23
2018-02-14T20:57:39.498Z,88.58
2018-02-14T21:00:07.077Z,88.21
2018-02-14T21:02:34.692Z,88.28
2018-02-14T21:05:02.216Z,88.24
2018-02-14T21:07:29.769Z,89.05
2018-02-14T21:09:57.335Z,88.89
2018-02-14T21:12:24.912Z,88.85
2018-02-14T21:14:52.472Z,89.67
2018-02-14T21:17:20.012Z,89.23
2018-02-14T21:19:47.603Z,89.52
2018-02-14T21:22:15.180Z,89.54
2018-02-14T21:24:42.732Z,89.89
2018-02-14T21:27:10.250Z,89.75
2018-02-14T21:29:37.793Z,90.04
2018-02-14T21:32:05.334Z,90.21
2018-02-14T21:34:32.882Z,89.85
2018-02-14T21:37:00.421Z,89.85
2018-02-14T21:39:28.077Z,89.87
2018-02-14T21:41:55.632Z,89.66
2018-02-14T21:44:23.313Z,89.47
2018-02-14T21:46:50.882Z,89.69
2018-02-14T21:49:18.592Z,90.36
2018-02-14T21:51:46.186Z,90.58
2018-02-14T21:54:13.816Z,90.56
2018-02-14T21:56:41.357Z,90.14
2018-02-14T21:59:08.896Z,89.70
2018-02-14T22:01:36.453Z,90.49
2018-02-14T22:04:04.067Z,90.35
2018-02-14T22:06:31.631Z,90.46
2018-02-14T22:08:59.176Z,90.23
2018-02-14T22:11:26.702Z,90.12
2018-02-14T22:13:54.283Z,89.43
2018-02-14T22:16:21.877Z,90.08
2018-02-14T22:18:49.486Z,89.91
2018-02-14T22:21:17.017Z,90.22
2018-02-14T22:23:44.775Z,90.48
2018-02-14T22:26:12.394Z,91.00
2018-02-14T22:28:40.071Z,90.60
2018-02-14T22:31:07.838Z,90.34
2018-02-14T22:33:35.416Z,90.21
2018-02-14T22:36:03.062Z,90.65
2018-02-14T22:38:30.618Z,90.52
2018-02-14T22:40:58.176Z,90.37
2018-02-14T22:43:25.817Z,90.11
2018-02-14T22:45:54.547Z,89.95
2018-02-14T22:48:22.420Z,90.08
2018-02-14T22:50:49.953Z,90.15
2018-02-14T22:53:17.515Z,90.26
2018-02-14T22:55:45.276Z,89.75
2018-02-14T22:58:12.816Z,89.76
2018-02-14T23:00:40.370Z,90.15
2018-02-14T23:03:07.906Z,90.59
2018-02-14T23:05:35.453Z,91.17
2018-02-14T23:08:03.002Z,91.16
2018-02-14T23:10:30.550Z,90.86
2018-02-14T23:12:58.087Z,91.14
2018-02-14T23:15:26.038Z,91.17
2018-02-14T23:17:53.587Z,91.41
2018-02-14T23:20:21.119Z,91.49
2018-02-14T23:22:48.652Z,91.16
2018-02-14T23:25:16.172Z,90.87
2018-02-14T23:27:43.712Z,90.61
2018-02-14T23:30:13.117Z,90.94
2018-02-14T23:32:40.691Z,90.45
2018-02-14T23:35:08.226Z,90.67
2018-02-14T23:37:35.904Z,91.07
2018-02-14T23:40:03.446Z,91.27
2018-02-14T23:42:30.995Z,91.10
2018-02-14T23:44:58.520Z,90.80
2018-02-14T23:47:26.040Z,91.18
2018-02-14T23:49:53.613Z,91.22
2018-02-14T23:52:21.137Z,91.54
2018-02-14T23:54:48.686Z,91.53
2018-02-14T23:57:16.220Z,91.68
2018-02-14T23:59:43.847Z,91.59
